Terminal Aerodrome Forecast
Issued by NWS Wichita, KS

Home | Current Version | Previous Version | Text Only | Print | Product List | Glossary Off
Versions: 1 2 3 4 5 6 7 8 9 10 11 12 13 14 15 16

000
FTUS43 KICT 150824 AAB
TAFICT
TAF AMD
KICT 150824Z 1508/1606 01015G22KT P6SM -RASN SCT025 OVC050
      TEMPO 1509/1510 OVC025
     FM151000 36013KT 4SM -SN BR SCT007 OVC015
      TEMPO 1510/1513 2SM -SN BR BKN007 OVC012
     FM151300 01014KT 5SM -SN SCT025 OVC035
     FM151500 01016G24KT P6SM SCT040 OVC080
     FM151800 36017KT P6SM BKN150=

USA.gov is the U.S. government's official web portal to all federal, state and local government web resources and services.